createdAt,value
2023-03-14T00:07:06.629Z,79.51
2023-03-14T00:37:09.557Z,82.04
2023-03-14T01:07:12.531Z,83.59
2023-03-14T01:37:15.524Z,84.85
2023-03-14T02:07:20.851Z,81.51
2023-03-14T02:37:25.823Z,78.15
2023-03-14T03:07:28.707Z,76.81
2023-03-14T03:37:32.835Z,76.80
2023-03-14T04:07:35.889Z,77.92
2023-03-14T04:37:38.894Z,80.02
2023-03-14T05:07:41.853Z,80.93
2023-03-14T05:37:44.809Z,84.03
2023-03-14T06:07:47.745Z,82.49
2023-03-14T06:37:50.766Z,81.66
2023-03-14T07:07:54.074Z,82.66
2023-03-14T07:37:57.190Z,82.42
2023-03-14T08:08:00.170Z,80.77
2023-03-14T08:38:03.077Z,81.24
2023-03-14T09:08:07.026Z,81.60
2023-03-14T09:38:10.018Z,83.43
2023-03-14T10:08:13.503Z,83.32
2023-03-14T10:38:18.286Z,83.80
2023-03-14T11:08:25.669Z,87.16
2023-03-14T11:38:35.361Z,92.56
2023-03-14T12:08:44.809Z,92.90
2023-03-14T12:39:11.578Z,80.17
2023-03-14T13:09:51.665Z,82.81
2023-03-14T13:39:57.305Z,84.51
2023-03-14T14:10:00.589Z,88.45
2023-03-14T14:40:10.763Z,92.00
2023-03-14T15:10:17.221Z,91.18
2023-03-14T15:40:20.705Z,89.52
2023-03-14T16:10:23.646Z,92.98
2023-03-14T16:40:26.553Z,93.25
2023-03-14T17:10:29.591Z,92.44
2023-03-14T17:40:32.615Z,92.69
2023-03-14T18:10:35.593Z,91.76
2023-03-14T18:40:41.208Z,87.68
2023-03-14T19:10:44.464Z,90.17
2023-03-14T19:40:48.024Z,88.67
2023-03-14T20:10:52.464Z,89.68
2023-03-14T20:40:58.487Z,89.76
2023-03-14T21:11:01.832Z,86.21
2023-03-14T21:41:05.117Z,82.42
2023-03-14T22:11:08.015Z,82.52
2023-03-14T22:41:10.998Z,82.44
2023-03-14T23:11:14.663Z,82.84
2023-03-14T23:41:17.686Z,82.48
